createdAt,value
2017-08-13T00:00:54.170Z,59.73
2017-08-13T00:01:53.898Z,60.21
2017-08-13T00:02:53.927Z,59.83
2017-08-13T00:03:53.944Z,60.11
2017-08-13T00:04:53.985Z,60.21
2017-08-13T00:05:54.356Z,60.11
2017-08-13T00:06:53.717Z,59.83
2017-08-13T00:07:54.064Z,59.73
2017-08-13T00:08:54.088Z,59.83
2017-08-13T00:09:54.118Z,60.11
2017-08-13T00:10:54.442Z,60.41
2017-08-13T00:11:53.862Z,60.31
2017-08-13T00:12:54.193Z,59.92
2017-08-13T00:13:53.919Z,60.11
2017-08-13T00:14:54.252Z,60.11
2017-08-13T00:15:54.575Z,60.31
2017-08-13T00:16:53.998Z,60.21
2017-08-13T00:17:54.326Z,60.31
2017-08-13T00:18:54.360Z,60.31
2017-08-13T00:19:54.389Z,60.31
2017-08-13T00:20:54.665Z,60.28
2017-08-13T00:21:54.442Z,60.5
2017-08-13T00:22:54.459Z,60.18
2017-08-13T00:23:54.516Z,60.09
2017-08-13T00:24:54.211Z,60.18
2017-08-13T00:25:54.794Z,60.09
2017-08-13T00:26:54.268Z,59.99
2017-08-13T00:27:54.294Z,60.28
2017-08-13T00:28:54.631Z,60.28
2017-08-13T00:29:54.657Z,60.09
2017-08-13T00:30:54.672Z,60.38
2017-08-13T00:31:54.403Z,60.38
2017-08-13T00:32:54.426Z,60.28
2017-08-13T00:33:54.764Z,60.28
2017-08-13T00:34:54.788Z,60.28
2017-08-13T00:35:54.756Z,60.31
2017-08-13T00:36:54.849Z,60.09
2017-08-13T00:37:54.559Z,59.99
2017-08-13T00:38:54.591Z,60.28
2017-08-13T00:39:54.616Z,60.18
2017-08-13T00:40:54.943Z,60.21
2017-08-13T00:41:54.979Z,60.02
2017-08-13T00:42:54.698Z,60.28
2017-08-13T00:43:54.715Z,60.09
2017-08-13T00:44:54.744Z,60.28
2017-08-13T00:45:55.397Z,60.28
2017-08-13T00:46:55.114Z,60.09
2017-08-13T00:47:55.145Z,60.28
2017-08-13T00:48:54.859Z,60.09
2017-08-13T00:49:55.196Z,59.89
2017-08-13T00:50:55.485Z,60.09
2017-08-13T00:51:55.250Z,60.09
2017-08-13T00:52:55.284Z,60.09
2017-08-13T00:53:55.311Z,60.69
2017-08-13T00:54:55.016Z,60.67
2017-08-13T00:55:55.669Z,60.38
2017-08-13T00:56:55.394Z,60.76
2017-08-13T00:57:55.414Z,60.67
2017-08-13T00:58:55.444Z,60.47
2017-08-13T00:59:55.465Z,60.57
2017-08-13T01:00:55.754Z,60.47
2017-08-13T01:01:55.526Z,59.89
2017-08-13T01:02:55.554Z,60.67
2017-08-13T01:03:55.578Z,60.09
2017-08-13T01:04:55.609Z,60.67
2017-08-13T01:05:55.888Z,59.99
2017-08-13T01:06:55.671Z,60.09
2017-08-13T01:07:55.693Z,60.18
2017-08-13T01:08:55.711Z,60.18
2017-08-13T01:09:55.744Z,60.18
2017-08-13T01:10:56.080Z,60.09
2017-08-13T01:11:55.794Z,60.18
2017-08-13T01:12:55.824Z,59.99
2017-08-13T01:13:55.848Z,60.09
2017-08-13T01:14:55.876Z,60.09
2017-08-13T01:15:56.165Z,60.18
2017-08-13T01:16:55.929Z,60.09
2017-08-13T01:17:55.962Z,60.38
2017-08-13T01:18:55.671Z,60.57
2017-08-13T01:19:56.026Z,60.76
2017-08-13T01:20:55.729Z,60.38
2017-08-13T01:21:56.073Z,60.38
2017-08-13T01:22:56.099Z,60.57
2017-08-13T01:23:56.119Z,60.57
2017-08-13T01:24:56.152Z,60.47
2017-08-13T01:25:55.870Z,60.57
2017-08-13T01:26:55.893Z,60.76
2017-08-13T01:27:55.918Z,60.38
2017-08-13T01:28:55.947Z,60.28
2017-08-13T01:29:56.288Z,61.25
2017-08-13T01:30:56.312Z,60.86
2017-08-13T01:31:56.339Z,60.86
2017-08-13T01:32:56.054Z,60.76
2017-08-13T01:33:56.399Z,60.86
2017-08-13T01:34:56.109Z,60.38
2017-08-13T01:35:56.453Z,60.76
2017-08-13T01:36:56.165Z,60.96
2017-08-13T01:37:56.507Z,60.86
2017-08-13T01:38:56.539Z,60.76
2017-08-13T01:39:56.569Z,60.47
2017-08-13T01:40:56.278Z,60.96
2017-08-13T01:41:56.614Z,61.05
2017-08-13T01:42:56.639Z,61.05
2017-08-13T01:43:56.347Z,60.76
2017-08-13T01:44:56.692Z,60.76
2017-08-13T01:45:56.402Z,60.47
2017-08-13T01:46:56.749Z,60.86
2017-08-13T01:47:56.778Z,60.86
2017-08-13T01:48:56.808Z,60.67
2017-08-13T01:49:56.512Z,61.73
2017-08-13T01:50:56.857Z,60.96
2017-08-13T01:51:56.581Z,61.63
2017-08-13T01:52:56.910Z,61.44
2017-08-13T01:53:56.938Z,61.44
2017-08-13T01:54:56.964Z,61.15
2017-08-13T01:55:56.993Z,61.44
2017-08-13T01:56:57.002Z,61.15
2017-08-13T01:57:57.043Z,61.54
2017-08-13T01:58:57.065Z,61.34
2017-08-13T01:59:57.099Z,61.44
2017-08-13T02:00:57.140Z,62.02
2017-08-13T02:01:57.141Z,61.92
2017-08-13T02:02:57.179Z,62.21
2017-08-13T02:03:57.207Z,61.83
2017-08-13T02:04:56.920Z,62.12
2017-08-13T02:05:56.948Z,61.92
2017-08-13T02:06:57.541Z,62.12
2017-08-13T02:07:57.314Z,62.02
2017-08-13T02:08:57.024Z,61.83
2017-08-13T02:09:57.371Z,61.73
2017-08-13T02:10:57.098Z,61.83
2017-08-13T02:11:57.725Z,61.92
2017-08-13T02:12:57.138Z,62.02
2017-08-13T02:13:57.494Z,61.92
2017-08-13T02:14:57.195Z,62.31
2017-08-13T02:15:57.525Z,62.02
2017-08-13T02:16:57.917Z,62.12
2017-08-13T02:17:57.585Z,62.12
2017-08-13T02:18:57.615Z,62.02
2017-08-13T02:19:57.636Z,61.63
2017-08-13T02:20:57.663Z,62.6
2017-08-13T02:21:57.949Z,61.83
2017-08-13T02:22:57.727Z,62.12
2017-08-13T02:23:57.747Z,62.5
2017-08-13T02:24:57.775Z,62.6
2017-08-13T02:25:57.492Z,62.5
2017-08-13T02:26:58.124Z,62.5
2017-08-13T02:27:57.863Z,62.7
2017-08-13T02:28:57.570Z,62.89
2017-08-13T02:29:57.913Z,62.4
2017-08-13T02:30:57.942Z,62.5
2017-08-13T02:31:58.217Z,62.98
2017-08-13T02:32:57.998Z,63.47
2017-08-13T02:33:58.024Z,62.6
2017-08-13T02:34:58.044Z,62.89
2017-08-13T02:35:58.067Z,63.28
2017-08-13T02:36:57.793Z,63.18
2017-08-13T02:37:58.148Z,63.85
2017-08-13T02:38:58.158Z,63.37
2017-08-13T02:39:58.179Z,63.28
2017-08-13T02:40:58.209Z,63.24
2017-08-13T02:41:58.228Z,63.37
2017-08-13T02:42:58.262Z,62.98
2017-08-13T02:43:57.974Z,62.89
2017-08-13T02:44:58.004Z,62.7
2017-08-13T02:45:58.034Z,62.4
2017-08-13T02:46:58.361Z,62.5
2017-08-13T02:47:58.093Z,62.5
2017-08-13T02:48:58.426Z,62.7
2017-08-13T02:49:58.143Z,62.5
2017-08-13T02:50:58.479Z,62.31
2017-08-13T02:51:58.509Z,62.5
2017-08-13T02:52:58.534Z,62.6
2017-08-13T02:53:58.560Z,62.79
2017-08-13T02:54:58.586Z,62.7
2017-08-13T02:55:58.612Z,62.98
2017-08-13T02:56:58.637Z,62.5
2017-08-13T02:57:58.665Z,62.89
2017-08-13T02:58:58.690Z,62.6
2017-08-13T02:59:58.719Z,62.5
2017-08-13T03:00:58.748Z,62.89
2017-08-13T03:01:58.460Z,63.18
2017-08-13T03:02:58.490Z,62.7
2017-08-13T03:03:58.514Z,62.98
2017-08-13T03:04:58.855Z,63.28
2017-08-13T03:05:58.568Z,62.79
2017-08-13T03:06:58.918Z,62.7
2017-08-13T03:07:58.930Z,62.89
2017-08-13T03:08:58.962Z,62.98
2017-08-13T03:09:58.991Z,62.7
2017-08-13T03:10:58.704Z,62.7
2017-08-13T03:11:59.041Z,62.89
2017-08-13T03:12:59.071Z,62.98
2017-08-13T03:13:58.783Z,62.7
2017-08-13T03:14:58.811Z,62.89
2017-08-13T03:15:58.835Z,63.28
2017-08-13T03:16:58.868Z,62.89
2017-08-13T03:17:59.206Z,62.89
2017-08-13T03:18:59.233Z,62.89
2017-08-13T03:19:59.265Z,62.5
2017-08-13T03:20:59.287Z,62.79
2017-08-13T03:21:58.997Z,62.5
2017-08-13T03:22:59.338Z,62.7
2017-08-13T03:23:59.054Z,62.6
2017-08-13T03:24:59.082Z,62.5
2017-08-13T03:25:59.420Z,62.7
2017-08-13T03:26:59.448Z,62.5
2017-08-13T03:27:59.167Z,62.89
2017-08-13T03:28:59.181Z,62.79
2017-08-13T03:29:59.531Z,62.89
2017-08-13T03:30:59.253Z,62.4
2017-08-13T03:31:59.588Z,62.4
2017-08-13T03:32:59.605Z,62.7
2017-08-13T03:33:59.321Z,62.6
2017-08-13T03:34:59.355Z,62.7
2017-08-13T03:35:59.376Z,62.6
2017-08-13T03:36:59.717Z,62.5
2017-08-13T03:37:59.745Z,62.4
2017-08-13T03:38:59.774Z,62.7
2017-08-13T03:39:59.794Z,63.08
2017-08-13T03:40:59.844Z,62.7
2017-08-13T03:41:59.860Z,62.98
2017-08-13T03:42:59.880Z,62.79
2017-08-13T03:43:59.898Z,62.6
2017-08-13T03:44:59.934Z,62.7
2017-08-13T03:45:59.652Z,62.7
2017-08-13T03:46:59.680Z,62.4
2017-08-13T03:48:00.017Z,63.47
2017-08-13T03:48:59.734Z,62.89
2017-08-13T03:49:59.772Z,62.98
2017-08-13T03:51:00.101Z,62.4
2017-08-13T03:51:59.812Z,62.5
2017-08-13T03:52:59.833Z,62.31
2017-08-13T03:53:59.866Z,62.7
2017-08-13T03:55:00.203Z,62.6
2017-08-13T03:56:00.231Z,62.79
2017-08-13T03:57:00.261Z,62.6
2017-08-13T03:58:00.292Z,62.98
2017-08-13T03:59:00.002Z,62.7
2017-08-13T04:00:00.027Z,62.5
2017-08-13T04:01:00.375Z,62.7
2017-08-13T04:02:00.392Z,62.5
2017-08-13T04:03:00.421Z,62.79
2017-08-13T04:04:00.140Z,63.08
2017-08-13T04:05:00.478Z,63.08
2017-08-13T04:06:00.508Z,62.98
2017-08-13T04:07:00.532Z,63.18
2017-08-13T04:08:00.557Z,62.89
2017-08-13T04:09:00.271Z,62.79
2017-08-13T04:10:00.615Z,62.7
2017-08-13T04:11:00.640Z,62.79
2017-08-13T04:12:00.351Z,63.37
2017-08-13T04:13:00.941Z,63.47
2017-08-13T04:14:00.718Z,62.79
2017-08-13T04:15:00.434Z,63.18
2017-08-13T04:16:00.772Z,63.47
2017-08-13T04:17:00.495Z,63.18
2017-08-13T04:18:01.085Z,62.7
2017-08-13T04:19:00.858Z,63.18
2017-08-13T04:20:00.878Z,62.7
2017-08-13T04:21:00.910Z,62.89
2017-08-13T04:22:00.935Z,63.37
2017-08-13T04:23:01.305Z,63.37
2017-08-13T04:24:00.986Z,63.47
2017-08-13T04:25:01.010Z,62.7
2017-08-13T04:26:00.730Z,62.89
2017-08-13T04:27:00.756Z,62.98
2017-08-13T04:28:01.341Z,62.98
2017-08-13T04:29:01.121Z,62.98
2017-08-13T04:30:00.838Z,62.7
2017-08-13T04:31:01.174Z,62.98
2017-08-13T04:32:01.200Z,63.18
2017-08-13T04:33:01.524Z,62.98
2017-08-13T04:34:01.257Z,62.7
2017-08-13T04:35:01.282Z,62.89
2017-08-13T04:36:00.999Z,62.98
2017-08-13T04:37:01.032Z,62.7
2017-08-13T04:38:01.664Z,62.98
2017-08-13T04:39:01.395Z,62.5
2017-08-13T04:40:01.104Z,62.89
2017-08-13T04:41:01.447Z,62.4
2017-08-13T04:42:01.484Z,62.7
2017-08-13T04:43:01.756Z,63.18
2017-08-13T04:44:01.541Z,62.98
2017-08-13T04:45:01.553Z,62.89
2017-08-13T04:46:01.579Z,62.89
2017-08-13T04:47:01.612Z,62.79
2017-08-13T04:48:01.955Z,62.98
2017-08-13T04:49:01.352Z,62.98
2017-08-13T04:50:01.694Z,62.98
2017-08-13T04:51:01.710Z,63.08
2017-08-13T04:52:01.748Z,63.18
2017-08-13T04:53:02.020Z,62.6
2017-08-13T04:54:01.485Z,63.18
2017-08-13T04:55:01.824Z,62.98
2017-08-13T04:56:01.847Z,63.18
2017-08-13T04:57:01.879Z,63.18
2017-08-13T04:58:02.164Z,62.7
2017-08-13T04:59:01.950Z,62.89
2017-08-13T05:00:01.965Z,62.89
2017-08-13T05:01:01.986Z,63.18
2017-08-13T05:02:01.707Z,62.6
2017-08-13T05:03:02.043Z,62.79
2017-08-13T05:04:01.757Z,62.98
2017-08-13T05:05:02.100Z,62.79
2017-08-13T05:06:02.118Z,62.6
2017-08-13T05:07:02.152Z,62.98
2017-08-13T05:08:02.176Z,62.6
2017-08-13T05:09:02.209Z,62.79
2017-08-13T05:10:02.226Z,62.5
2017-08-13T05:11:01.947Z,62.98
2017-08-13T05:12:02.287Z,62.7
2017-08-13T05:13:02.313Z,62.98
2017-08-13T05:14:02.341Z,62.7
2017-08-13T05:15:02.054Z,62.79
2017-08-13T05:16:02.082Z,62.5
2017-08-13T05:17:02.411Z,62.6
2017-08-13T05:18:02.451Z,62.6
2017-08-13T05:19:02.165Z,62.6
2017-08-13T05:20:02.502Z,62.7
2017-08-13T05:21:02.530Z,62.7
2017-08-13T05:22:02.558Z,62.79
2017-08-13T05:23:02.592Z,62.6
2017-08-13T05:24:02.613Z,62.98
2017-08-13T05:25:02.636Z,62.98
2017-08-13T05:26:02.668Z,62.98
2017-08-13T05:27:02.695Z,63.18
2017-08-13T05:28:02.720Z,62.89
2017-08-13T05:29:02.433Z,62.7
2017-08-13T05:30:02.774Z,62.98
2017-08-13T05:31:02.798Z,63.18
2017-08-13T05:32:02.823Z,62.98
2017-08-13T05:33:02.851Z,63.08
2017-08-13T05:34:02.880Z,62.98
2017-08-13T05:35:02.909Z,62.89
2017-08-13T05:36:02.938Z,62.98
2017-08-13T05:37:02.961Z,63.08
2017-08-13T05:38:02.991Z,63.08
2017-08-13T05:39:02.716Z,62.7
2017-08-13T05:40:03.041Z,62.79
2017-08-13T05:41:03.067Z,62.7
2017-08-13T05:42:02.786Z,62.4
2017-08-13T05:43:03.116Z,62.5
2017-08-13T05:44:03.161Z,62.6
2017-08-13T05:45:03.177Z,62.6
2017-08-13T05:46:03.205Z,62.7
2017-08-13T05:47:03.238Z,62.79
2017-08-13T05:48:03.263Z,62.4
2017-08-13T05:49:03.296Z,62.5
2017-08-13T05:50:03.313Z,62.4
2017-08-13T05:51:03.345Z,62.6
2017-08-13T05:52:03.361Z,62.5
2017-08-13T05:53:03.391Z,62.7
2017-08-13T05:54:03.111Z,62.7
2017-08-13T05:55:03.449Z,62.7
2017-08-13T05:56:03.482Z,62.6
2017-08-13T05:57:03.193Z,62.6
2017-08-13T05:58:03.523Z,62.6
2017-08-13T05:59:03.556Z,62.6
2017-08-13T06:00:03.589Z,62.5
2017-08-13T06:01:03.613Z,62.5
2017-08-13T06:02:03.327Z,62.4
2017-08-13T06:03:03.354Z,62.4
2017-08-13T06:04:03.693Z,62.79
2017-08-13T06:05:03.410Z,62.7
2017-08-13T06:06:03.746Z,62.98
2017-08-13T06:07:03.463Z,63.08
2017-08-13T06:08:03.494Z,62.53
2017-08-13T06:09:03.815Z,62.89
2017-08-13T06:10:03.559Z,62.98
2017-08-13T06:11:03.569Z,62.98
2017-08-13T06:12:03.906Z,62.98
2017-08-13T06:13:03.940Z,62.89
2017-08-13T06:14:04.215Z,62.89
2017-08-13T06:15:03.993Z,63.08
2017-08-13T06:16:04.018Z,62.98
2017-08-13T06:17:04.048Z,62.89
2017-08-13T06:18:04.072Z,62.89
2017-08-13T06:19:04.140Z,62.89
2017-08-13T06:20:04.129Z,63.02
2017-08-13T06:21:04.153Z,62.89
2017-08-13T06:22:04.182Z,63.08
2017-08-13T06:23:04.211Z,62.92
2017-08-13T06:24:04.488Z,63.08
2017-08-13T06:25:04.265Z,62.7
2017-08-13T06:26:03.985Z,63.11
2017-08-13T06:27:04.322Z,62.6
2017-08-13T06:28:04.030Z,62.92
2017-08-13T06:29:04.319Z,62.79
2017-08-13T06:30:04.401Z,63.08
2017-08-13T06:31:04.113Z,62.7
2017-08-13T06:32:04.137Z,62.79
2017-08-13T06:33:04.478Z,62.7
2017-08-13T06:34:04.807Z,62.89
2017-08-13T06:35:04.532Z,62.82
2017-08-13T06:36:04.564Z,62.44
2017-08-13T06:37:04.276Z,62.4
2017-08-13T06:38:04.612Z,62.63
2017-08-13T06:39:04.625Z,62.44
2017-08-13T06:40:04.668Z,62.73
2017-08-13T06:41:04.702Z,62.73
2017-08-13T06:42:04.720Z,62.63
2017-08-13T06:43:04.438Z,62.53
2017-08-13T06:44:05.076Z,62.44
2017-08-13T06:45:04.807Z,62.53
2017-08-13T06:46:04.528Z,62.53
2017-08-13T06:47:04.857Z,62.6
2017-08-13T06:48:04.887Z,62.53
2017-08-13T06:49:04.902Z,62.92
2017-08-13T06:50:04.947Z,62.82
2017-08-13T06:51:04.966Z,63.02
2017-08-13T06:52:04.991Z,62.73
2017-08-13T06:53:05.027Z,62.79
2017-08-13T06:54:05.346Z,62.82
2017-08-13T06:55:05.076Z,62.44
2017-08-13T06:56:05.102Z,62.24
2017-08-13T06:57:04.817Z,61.95
2017-08-13T06:58:05.159Z,62.53
2017-08-13T06:59:05.486Z,62.53
2017-08-13T07:00:05.213Z,62.44
2017-08-13T07:01:05.241Z,62.05
2017-08-13T07:02:04.955Z,61.95
2017-08-13T07:03:04.987Z,62.15
2017-08-13T07:04:05.627Z,61.57
2017-08-13T07:05:05.043Z,62.15
2017-08-13T07:06:05.381Z,62.15
2017-08-13T07:07:05.398Z,61.95
2017-08-13T07:08:05.451Z,61.95
2017-08-13T07:09:05.759Z,62.15
2017-08-13T07:10:05.481Z,61.57
2017-08-13T07:11:05.201Z,61.57
2017-08-13T07:12:05.229Z,61.86
2017-08-13T07:13:05.257Z,61.37
2017-08-13T07:14:05.950Z,61.27
2017-08-13T07:15:05.621Z,61.37
2017-08-13T07:16:05.344Z,61.57
2017-08-13T07:17:05.677Z,61.37
2017-08-13T07:18:05.707Z,61.18
2017-08-13T07:19:05.719Z,61.47
2017-08-13T07:20:05.452Z,61.47
2017-08-13T07:21:05.788Z,61.57
2017-08-13T07:22:05.818Z,61.47
2017-08-13T07:23:05.835Z,61.57
2017-08-13T07:24:06.120Z,61.6
2017-08-13T07:25:05.887Z,61.37
2017-08-13T07:26:05.925Z,61.37
2017-08-13T07:27:05.632Z,61.02
2017-08-13T07:28:05.985Z,61.69
2017-08-13T07:29:05.687Z,61.5
2017-08-13T07:30:06.029Z,61.21
2017-08-13T07:31:06.065Z,61.3
2017-08-13T07:32:06.090Z,61.21
2017-08-13T07:33:06.119Z,60.92
2017-08-13T07:34:06.153Z,60.92
2017-08-13T07:35:06.162Z,60.82
2017-08-13T07:36:05.884Z,60.72
2017-08-13T07:37:06.222Z,60.92
2017-08-13T07:38:06.247Z,60.82
2017-08-13T07:39:06.279Z,60.92
2017-08-13T07:40:06.312Z,60.82
2017-08-13T07:41:06.341Z,60.92
2017-08-13T07:42:06.053Z,61.02
2017-08-13T07:43:06.395Z,61.02
2017-08-13T07:44:06.107Z,60.82
2017-08-13T07:45:06.132Z,60.82
2017-08-13T07:46:06.162Z,60.82
2017-08-13T07:47:06.498Z,60.53
2017-08-13T07:48:06.523Z,60.53
2017-08-13T07:49:06.559Z,60.82
2017-08-13T07:50:06.576Z,60.53
2017-08-13T07:51:06.301Z,61.11
2017-08-13T07:52:06.641Z,60.92
2017-08-13T07:53:06.662Z,61.02
2017-08-13T07:54:06.690Z,60.92
2017-08-13T07:55:06.719Z,60.82
2017-08-13T07:56:06.432Z,61.11
2017-08-13T07:57:06.777Z,60.92
2017-08-13T07:58:06.802Z,60.63
2017-08-13T07:59:06.828Z,60.72
2017-08-13T08:00:06.540Z,60.82
2017-08-13T08:01:06.882Z,60.53
2017-08-13T08:02:06.916Z,60.75
2017-08-13T08:03:06.934Z,60.63
2017-08-13T08:04:06.965Z,60.24
2017-08-13T08:05:06.996Z,60.08
2017-08-13T08:06:07.022Z,60.14
2017-08-13T08:07:06.738Z,60.14
2017-08-13T08:08:06.771Z,60.37
2017-08-13T08:09:06.799Z,60.24
2017-08-13T08:10:07.146Z,60.34
2017-08-13T08:11:06.853Z,60.24
2017-08-13T08:12:07.190Z,60.14
2017-08-13T08:13:07.218Z,60.14
2017-08-13T08:14:06.939Z,60.34
2017-08-13T08:15:07.340Z,60.24
2017-08-13T08:16:07.304Z,60.08
2017-08-13T08:17:07.015Z,60.05
2017-08-13T08:18:07.357Z,60.08
2017-08-13T08:19:07.072Z,60.37
2017-08-13T08:20:07.352Z,60.17
2017-08-13T08:21:07.125Z,60.24
2017-08-13T08:22:07.465Z,59.98
2017-08-13T08:23:07.183Z,59.86
2017-08-13T08:24:07.523Z,59.98
2017-08-13T08:25:07.536Z,59.59
2017-08-13T08:26:07.264Z,59.98
2017-08-13T08:27:07.609Z,59.89
2017-08-13T08:28:07.631Z,59.98
2017-08-13T08:29:07.657Z,59.89
2017-08-13T08:30:07.984Z,59.79
2017-08-13T08:31:07.717Z,59.79
2017-08-13T08:32:07.741Z,59.5
2017-08-13T08:33:07.467Z,60.08
2017-08-13T08:34:07.802Z,59.89
2017-08-13T08:35:08.076Z,59.69
2017-08-13T08:36:07.853Z,59.4
2017-08-13T08:37:07.881Z,59.31
2017-08-13T08:38:07.907Z,59.5
2017-08-13T08:39:07.936Z,59.21
2017-08-13T08:40:07.908Z,59.21
2017-08-13T08:41:07.680Z,59.11
2017-08-13T08:42:08.021Z,59.21
2017-08-13T08:43:08.046Z,58.53
2017-08-13T08:44:07.763Z,58.53
2017-08-13T08:45:08.091Z,58.44
2017-08-13T08:46:08.135Z,58.24
2017-08-13T08:47:08.161Z,58.14
2017-08-13T08:48:08.186Z,58.24
2017-08-13T08:49:08.215Z,57.66
2017-08-13T08:50:08.535Z,57.46
2017-08-13T08:51:08.268Z,57.95
2017-08-13T08:52:08.305Z,57.66
2017-08-13T08:53:08.326Z,57.76
2017-08-13T08:54:08.349Z,57.86
2017-08-13T08:55:08.732Z,57.56
2017-08-13T08:56:08.408Z,57.66
2017-08-13T08:57:08.442Z,57.86
2017-08-13T08:58:08.182Z,57.86
2017-08-13T08:59:08.490Z,58.14
2017-08-13T09:00:08.824Z,57.37
2017-08-13T09:01:08.237Z,57.08
2017-08-13T09:02:08.580Z,57.4
2017-08-13T09:03:08.605Z,57.2
2017-08-13T09:04:08.633Z,57.2
2017-08-13T09:05:08.908Z,57.4
2017-08-13T09:06:08.689Z,57.01
2017-08-13T09:07:08.723Z,57.3
2017-08-13T09:08:08.433Z,57.2
2017-08-13T09:09:08.778Z,56.62
2017-08-13T09:10:09.107Z,56.72
2017-08-13T09:11:08.837Z,56.82
2017-08-13T09:12:08.852Z,56.72
2017-08-13T09:13:08.877Z,56.82
2017-08-13T09:14:08.915Z,56.82
2017-08-13T09:15:09.239Z,56.72
2017-08-13T09:16:08.965Z,56.43
2017-08-13T09:17:08.997Z,56.62
2017-08-13T09:18:09.030Z,56.82
2017-08-13T09:19:09.054Z,56.43
2017-08-13T09:20:09.079Z,55.85
2017-08-13T09:21:08.801Z,55.94
2017-08-13T09:22:09.137Z,56.04
2017-08-13T09:23:08.850Z,56.14
2017-08-13T09:24:08.878Z,56.82
2017-08-13T09:25:08.912Z,56.52
2017-08-13T09:26:09.251Z,56.04
2017-08-13T09:27:09.278Z,56.04
2017-08-13T09:28:09.303Z,55.94
2017-08-13T09:29:09.335Z,55.76
2017-08-13T09:30:09.367Z,56.04
2017-08-13T09:31:09.080Z,56.14
2017-08-13T09:32:09.422Z,56.04
2017-08-13T09:33:09.445Z,56.14
2017-08-13T09:34:09.483Z,56.04
2017-08-13T09:35:09.186Z,56.04
2017-08-13T09:36:09.219Z,56.14
2017-08-13T09:37:09.561Z,56.14
2017-08-13T09:38:09.276Z,56.52
2017-08-13T09:39:09.620Z,56.04
2017-08-13T09:40:09.659Z,55.85
2017-08-13T09:41:09.677Z,56.14
2017-08-13T09:42:09.705Z,56.04
2017-08-13T09:43:09.419Z,56.04
2017-08-13T09:44:09.446Z,56.14
2017-08-13T09:45:09.480Z,56.04
2017-08-13T09:46:09.812Z,56.16
2017-08-13T09:47:09.532Z,56.16
2017-08-13T09:48:09.561Z,55.98
2017-08-13T09:49:09.894Z,55.76
2017-08-13T09:50:09.931Z,56.16
2017-08-13T09:51:09.644Z,56.04
2017-08-13T09:52:09.669Z,56.36
2017-08-13T09:53:10.008Z,56.04
2017-08-13T09:54:10.045Z,55.98
2017-08-13T09:55:09.755Z,56.07
2017-08-13T09:56:10.096Z,55.85
2017-08-13T09:57:10.126Z,55.78
2017-08-13T09:58:10.157Z,56.26
2017-08-13T09:59:10.179Z,55.88
2017-08-13T10:00:10.207Z,55.94
2017-08-13T10:01:10.245Z,56.16
2017-08-13T10:02:10.265Z,56.26
2017-08-13T10:03:10.292Z,55.88
2017-08-13T10:04:10.330Z,56.56
2017-08-13T10:05:10.040Z,56.07
2017-08-13T10:06:10.379Z,56.04
2017-08-13T10:07:10.406Z,56.26
2017-08-13T10:08:10.429Z,56.14
2017-08-13T10:09:10.151Z,56.16
2017-08-13T10:10:10.492Z,57.11
2017-08-13T10:11:10.211Z,56.82
2017-08-13T10:12:10.544Z,56.72
2017-08-13T10:13:10.582Z,56.04
2017-08-13T10:14:10.287Z,56.92
2017-08-13T10:15:10.319Z,57.2
2017-08-13T10:16:10.370Z,56.34
2017-08-13T10:17:10.685Z,56.43
2017-08-13T10:18:10.763Z,55.85
2017-08-13T10:19:10.747Z,56.72
2017-08-13T10:20:10.463Z,56.52
2017-08-13T10:21:10.801Z,56.52
2017-08-13T10:22:10.830Z,56.62
2017-08-13T10:23:10.859Z,56.62
2017-08-13T10:24:10.887Z,56.52
2017-08-13T10:25:10.603Z,56.52
2017-08-13T10:26:10.952Z,56.92
2017-08-13T10:27:10.969Z,56.72
2017-08-13T10:28:10.994Z,56.52
2017-08-13T10:29:10.715Z,57.01
2017-08-13T10:30:11.057Z,57.11
2017-08-13T10:31:11.088Z,57.4
2017-08-13T10:32:10.805Z,57.3
2017-08-13T10:33:11.133Z,56.52
2017-08-13T10:34:10.858Z,56.62
2017-08-13T10:35:11.194Z,57.11
2017-08-13T10:36:11.230Z,57.01
2017-08-13T10:37:10.945Z,56.72
2017-08-13T10:38:11.285Z,56.62
2017-08-13T10:39:10.995Z,56.24
2017-08-13T10:40:11.335Z,56.24
2017-08-13T10:41:11.608Z,56.72
2017-08-13T10:42:11.079Z,57.11
2017-08-13T10:43:11.113Z,57.11
2017-08-13T10:44:11.442Z,56.72
2017-08-13T10:45:11.477Z,56.52
2017-08-13T10:46:11.776Z,56.72
2017-08-13T10:47:11.219Z,55.94
2017-08-13T10:48:11.565Z,56.04
2017-08-13T10:49:11.590Z,56.24
2017-08-13T10:50:11.619Z,56.24
2017-08-13T10:51:11.632Z,56.14
2017-08-13T10:52:11.677Z,56.07
2017-08-13T10:53:11.705Z,56.36
2017-08-13T10:54:11.722Z,56.26
2017-08-13T10:55:11.770Z,56.46
2017-08-13T10:56:11.778Z,55.98
2017-08-13T10:57:11.817Z,56.07
2017-08-13T10:58:11.841Z,56.26
2017-08-13T10:59:11.870Z,55.78
2017-08-13T11:00:11.903Z,56.07
2017-08-13T11:01:11.869Z,56.07
2017-08-13T11:02:11.956Z,55.98
2017-08-13T11:03:11.984Z,56.26
2017-08-13T11:04:12.014Z,55.88
2017-08-13T11:05:11.734Z,56.07
2017-08-13T11:06:12.379Z,56.07
2017-08-13T11:07:12.098Z,56.07
2017-08-13T11:08:11.816Z,56.65
2017-08-13T11:09:12.162Z,56.56
2017-08-13T11:10:12.182Z,57.14
2017-08-13T11:11:11.901Z,56.56
2017-08-13T11:12:12.237Z,56.65
2017-08-13T11:13:12.264Z,56.56
2017-08-13T11:14:11.982Z,57.14
2017-08-13T11:15:12.013Z,56.82
2017-08-13T11:16:12.350Z,57.01
2017-08-13T11:17:12.374Z,56.72
2017-08-13T11:18:12.101Z,56.82
2017-08-13T11:19:12.438Z,57.01
2017-08-13T11:20:12.466Z,56.52
2017-08-13T11:21:12.184Z,56.62
2017-08-13T11:22:12.206Z,57.2
2017-08-13T11:23:12.548Z,57.11
2017-08-13T11:24:12.578Z,57.3
2017-08-13T11:25:12.606Z,57.59
2017-08-13T11:26:12.327Z,57.4
2017-08-13T11:27:12.664Z,56.34
2017-08-13T11:28:12.688Z,57.2
2017-08-13T11:29:12.406Z,56.72
2017-08-13T11:30:12.746Z,56.82
2017-08-13T11:31:12.776Z,57.11
2017-08-13T11:32:12.800Z,57.01
2017-08-13T11:33:12.839Z,56.92
2017-08-13T11:34:12.856Z,56.82
2017-08-13T11:35:12.574Z,57.11
2017-08-13T11:36:12.918Z,57.2
2017-08-13T11:37:12.952Z,56.82
2017-08-13T11:38:12.655Z,56.82
2017-08-13T11:39:12.998Z,56.82
2017-08-13T11:40:13.027Z,56.72
2017-08-13T11:41:13.055Z,57.11
2017-08-13T11:42:12.772Z,57.3
2017-08-13T11:43:13.120Z,56.62
2017-08-13T11:44:12.829Z,56.92
2017-08-13T11:45:13.186Z,56.92
2017-08-13T11:46:12.884Z,57.01
2017-08-13T11:47:13.224Z,57.2
2017-08-13T11:48:13.257Z,57.11
2017-08-13T11:49:13.278Z,57.11
2017-08-13T11:50:13.309Z,57.01
2017-08-13T11:51:13.331Z,57.2
2017-08-13T11:52:13.051Z,56.82
2017-08-13T11:53:13.396Z,57.11
2017-08-13T11:54:13.117Z,57.4
2017-08-13T11:55:13.456Z,57.4
2017-08-13T11:56:13.481Z,57.11
2017-08-13T11:57:13.511Z,56.26
2017-08-13T11:58:13.532Z,57.23
2017-08-13T11:59:13.257Z,57.5
2017-08-13T12:00:13.302Z,56.75
2017-08-13T12:01:13.309Z,56.72
2017-08-13T12:02:13.644Z,56.75
2017-08-13T12:03:13.680Z,56.94
2017-08-13T12:04:13.706Z,57.04
2017-08-13T12:05:13.729Z,56.94
2017-08-13T12:06:13.455Z,56.52
2017-08-13T12:07:13.789Z,56.85
2017-08-13T12:08:13.817Z,56.65
2017-08-13T12:09:13.845Z,56.56
2017-08-13T12:10:13.875Z,56.56
2017-08-13T12:11:13.902Z,56.94
2017-08-13T12:12:13.923Z,57.43
2017-08-13T12:13:13.956Z,57.53
2017-08-13T12:14:13.989Z,57.11
2017-08-13T12:15:13.701Z,57.2
2017-08-13T12:16:14.046Z,57.43
2017-08-13T12:17:13.760Z,56.26
2017-08-13T12:18:13.788Z,57.14
2017-08-13T12:19:14.125Z,57.4
2017-08-13T12:20:13.850Z,57.11
2017-08-13T12:21:14.183Z,57.2
2017-08-13T12:22:14.216Z,57.4
2017-08-13T12:23:14.252Z,57.01
2017-08-13T12:24:14.293Z,57.59
2017-08-13T12:25:14.294Z,57.3
2017-08-13T12:26:14.010Z,57.59
2017-08-13T12:27:14.360Z,58.07
2017-08-13T12:28:14.376Z,57.69
2017-08-13T12:29:14.116Z,57.98
2017-08-13T12:30:14.433Z,57.88
2017-08-13T12:31:14.463Z,57.11
2017-08-13T12:32:14.492Z,57.69
2017-08-13T12:33:14.524Z,57.69
2017-08-13T12:34:14.546Z,57.2
2017-08-13T12:35:14.583Z,57.59
2017-08-13T12:36:14.607Z,57.3
2017-08-13T12:37:14.627Z,57.2
2017-08-13T12:38:14.656Z,57.2
2017-08-13T12:39:14.384Z,57.2
2017-08-13T12:40:14.722Z,58.07
2017-08-13T12:41:14.747Z,57.98
2017-08-13T12:42:15.083Z,58.17
2017-08-13T12:43:14.808Z,57.98
2017-08-13T12:44:14.829Z,57.88
2017-08-13T12:45:14.853Z,57.69
2017-08-13T12:46:14.575Z,57.69
2017-08-13T12:47:15.213Z,57.88
2017-08-13T12:48:14.636Z,57.69
2017-08-13T12:49:14.974Z,57.59
2017-08-13T12:50:15.002Z,57.98
2017-08-13T12:51:15.031Z,58.27
2017-08-13T12:52:15.350Z,58.17
2017-08-13T12:53:15.088Z,58.27
2017-08-13T12:54:15.111Z,57.69
2017-08-13T12:55:15.142Z,57.4
2017-08-13T12:56:15.170Z,57.3
2017-08-13T12:57:15.447Z,57.59
2017-08-13T12:58:15.228Z,57.4